createdAt,value
2019-04-29T00:01:32.624Z,31.50
2019-04-29T00:04:30.317Z,31.02
2019-04-29T00:07:34.671Z,30.23
2019-04-29T00:10:44.655Z,31.57
2019-04-29T00:13:56.307Z,30.25
2019-04-29T00:17:00.714Z,29.37
2019-04-29T00:20:16.205Z,28.80
2019-04-29T00:23:27.484Z,28.83
2019-04-29T00:26:31.345Z,28.73
2019-04-29T00:29:38.294Z,29.18
2019-04-29T00:32:49.719Z,28.12
2019-04-29T00:35:57.438Z,28.07
2019-04-29T00:39:12.544Z,27.27
2019-04-29T00:42:18.975Z,26.77
2019-04-29T00:45:32.523Z,25.90
2019-04-29T00:48:33.379Z,27.32
2019-04-29T00:51:30.651Z,25.37
2019-04-29T00:54:30.403Z,24.90
2019-04-29T00:57:49.782Z,25.20
2019-04-29T01:00:57.299Z,24.35
2019-04-29T01:04:03.506Z,24.32
2019-04-29T01:07:15.212Z,24.25
2019-04-29T01:10:32.047Z,22.82
2019-04-29T01:13:33.683Z,22.85
2019-04-29T01:16:40.696Z,22.40
2019-04-29T01:19:38.099Z,22.27
2019-04-29T01:23:01.077Z,22.32
2019-04-29T01:26:15.951Z,21.35
2019-04-29T01:29:29.761Z,21.20
2019-04-29T01:32:36.190Z,20.60
2019-04-29T01:35:39.044Z,20.12
2019-04-29T01:38:48.607Z,20.02
2019-04-29T01:42:11.037Z,20.35
2019-04-29T01:45:28.457Z,20.50
2019-04-29T01:48:34.732Z,19.42
2019-04-29T01:52:05.573Z,19.25
2019-04-29T01:54:55.497Z,20.02
2019-04-29T01:58:08.831Z,19.50
2019-04-29T02:01:22.442Z,18.30
2019-04-29T02:04:24.974Z,18.32
2019-04-29T02:07:18.684Z,18.37
2019-04-29T02:10:49.090Z,17.77
2019-04-29T02:14:06.945Z,17.07
2019-04-29T02:17:03.839Z,16.97
2019-04-29T02:20:10.342Z,16.50
2019-04-29T02:23:40.127Z,16.50
2019-04-29T02:26:34.797Z,16.52
2019-04-29T02:29:29.159Z,15.32
2019-04-29T02:32:38.643Z,15.35
2019-04-29T02:35:39.552Z,14.98
2019-04-29T02:39:00.723Z,15.93
2019-04-29T02:42:06.574Z,14.38
2019-04-29T02:45:15.327Z,14.87
2019-04-29T02:48:20.128Z,14.73
2019-04-29T02:51:27.861Z,13.98
2019-04-29T02:54:46.587Z,13.58
2019-04-29T02:58:03.179Z,13.65
2019-04-29T03:01:32.838Z,13.75
2019-04-29T03:04:37.138Z,12.98
2019-04-29T03:08:01.226Z,13.43
2019-04-29T03:11:15.686Z,12.82
2019-04-29T03:14:23.064Z,13.48
2019-04-29T03:17:23.498Z,13.45
2019-04-29T03:20:59.962Z,12.50
2019-04-29T03:24:07.653Z,12.58
2019-04-29T03:27:22.404Z,12.15
2019-04-29T03:30:36.214Z,11.93
2019-04-29T03:33:46.039Z,11.78
2019-04-29T03:36:41.430Z,11.00
2019-04-29T03:39:45.806Z,11.38
2019-04-29T03:42:54.538Z,11.80
2019-04-29T03:46:10.902Z,11.10
2019-04-29T03:49:15.717Z,11.38
2019-04-29T03:52:25.085Z,11.03
2019-04-29T03:55:40.372Z,10.63
2019-04-29T03:58:51.009Z,10.43
2019-04-29T04:02:18.401Z,10.60
2019-04-29T04:05:42.065Z,10.72
2019-04-29T04:09:05.843Z,10.10
2019-04-29T04:12:15.140Z,10.40
2019-04-29T04:15:30.401Z,10.00
2019-04-29T04:18:27.676Z,9.55
2019-04-29T04:21:43.233Z,9.55
2019-04-29T04:25:04.959Z,9.13
2019-04-29T04:27:55.991Z,9.78
2019-04-29T04:30:59.934Z,9.28
2019-04-29T04:34:08.927Z,9.55
2019-04-29T04:37:08.396Z,9.23
2019-04-29T04:40:20.885Z,8.93
2019-04-29T04:43:15.038Z,8.73
2019-04-29T04:46:18.380Z,8.18
2019-04-29T04:49:27.197Z,7.78
2019-04-29T04:52:21.621Z,8.90
2019-04-29T04:55:31.918Z,9.88
2019-04-29T04:58:40.094Z,10.25
2019-04-29T05:01:55.154Z,14.05
2019-04-29T05:05:01.877Z,11.48
2019-04-29T05:07:56.588Z,18.35
2019-04-29T05:11:15.944Z,18.67
2019-04-29T05:14:25.863Z,28.38
2019-04-29T05:17:35.271Z,52.75
2019-04-29T05:20:50.786Z,52.27
2019-04-29T05:23:57.561Z,41.08
2019-04-29T05:27:15.865Z,32.98
2019-04-29T05:30:28.639Z,34.30
2019-04-29T05:33:36.829Z,30.68
2019-04-29T05:37:00.663Z,30.50
2019-04-29T05:40:19.723Z,30.60
2019-04-29T05:43:27.177Z,30.20
2019-04-29T05:46:45.667Z,29.50
2019-04-29T05:49:59.255Z,30.00
2019-04-29T05:53:27.663Z,28.23
2019-04-29T05:56:40.928Z,28.15
2019-04-29T05:59:57.747Z,27.75
2019-04-29T06:03:21.666Z,27.62
2019-04-29T06:06:25.211Z,26.50
2019-04-29T06:09:29.302Z,26.25
2019-04-29T06:12:55.463Z,26.15
2019-04-29T06:16:05.575Z,26.68
2019-04-29T06:19:27.250Z,26.75
2019-04-29T06:22:47.306Z,25.32
2019-04-29T06:25:56.848Z,25.00
2019-04-29T06:29:06.056Z,25.05
2019-04-29T06:32:20.286Z,24.60
2019-04-29T06:35:26.144Z,24.70
2019-04-29T06:38:36.546Z,23.35
2019-04-29T06:41:40.623Z,24.18
2019-04-29T06:44:39.573Z,22.90
2019-04-29T06:47:50.457Z,23.20
2019-04-29T06:51:10.252Z,21.80
2019-04-29T06:54:25.449Z,23.07
2019-04-29T06:57:29.601Z,22.48
2019-04-29T07:00:41.609Z,21.95
2019-04-29T07:03:35.442Z,22.17
2019-04-29T07:06:57.069Z,22.40
2019-04-29T07:09:57.166Z,22.10
2019-04-29T07:13:08.885Z,21.10
2019-04-29T07:16:21.753Z,21.82
2019-04-29T07:19:41.428Z,21.48
2019-04-29T07:22:50.858Z,21.20
2019-04-29T07:25:58.567Z,21.37
2019-04-29T07:29:00.656Z,21.37
2019-04-29T07:32:24.117Z,20.15
2019-04-29T07:35:18.822Z,19.65
2019-04-29T07:38:46.483Z,21.42
2019-04-29T07:41:58.515Z,21.57
2019-04-29T07:45:27.792Z,20.90
2019-04-29T07:48:23.960Z,21.17
2019-04-29T07:51:28.029Z,20.37
2019-04-29T07:54:33.451Z,19.95
2019-04-29T07:57:53.262Z,20.02
2019-04-29T08:01:15.241Z,19.77
2019-04-29T08:04:40.554Z,20.12
2019-04-29T08:07:58.094Z,20.05
2019-04-29T08:11:15.687Z,19.12
2019-04-29T08:14:29.945Z,18.85
2019-04-29T08:17:51.398Z,18.62
2019-04-29T08:21:04.209Z,18.37
2019-04-29T08:24:24.967Z,15.75
2019-04-29T08:27:39.982Z,16.32
2019-04-29T08:31:06.306Z,13.13
2019-04-29T08:34:02.533Z,7.72
2019-04-29T08:37:29.080Z,6.72
2019-04-29T08:40:50.003Z,4.10
2019-04-29T08:44:16.226Z,3.92
2019-04-29T08:47:30.432Z,2.83
2019-04-29T08:50:31.821Z,2.00
2019-04-29T08:53:42.057Z,3.58
2019-04-29T08:57:02.692Z,2.65
2019-04-29T08:59:55.197Z,5.33
2019-04-29T09:02:54.454Z,4.50
2019-04-29T09:06:05.544Z,2.80
2019-04-29T09:09:10.577Z,1.95
2019-04-29T09:12:01.623Z,2.10
2019-04-29T09:14:46.442Z,1.70
2019-04-29T09:17:50.283Z,1.47
2019-04-29T09:21:13.487Z,1.10
2019-04-29T09:24:28.581Z,1.20
2019-04-29T09:27:40.830Z,0.90
2019-04-29T09:30:38.481Z,1.10
2019-04-29T09:33:48.987Z,1.10
2019-04-29T09:37:00.652Z,1.32
2019-04-29T09:40:08.392Z,18.75
2019-04-29T09:43:32.841Z,32.93
2019-04-29T09:46:43.885Z,24.30
2019-04-29T09:49:57.161Z,22.77
2019-04-29T09:53:15.275Z,17.62
2019-04-29T09:56:30.743Z,15.63
2019-04-29T10:00:07.110Z,15.10
2019-04-29T10:03:10.949Z,11.75
2019-04-29T10:06:20.111Z,28.55
2019-04-29T10:09:21.866Z,33.35
2019-04-29T10:12:28.866Z,30.65
2019-04-29T10:15:31.385Z,27.95
2019-04-29T10:18:30.219Z,24.75
2019-04-29T10:21:35.157Z,18.98
2019-04-29T10:24:37.769Z,18.95
2019-04-29T10:27:42.359Z,15.75
2019-04-29T10:30:49.978Z,14.28
2019-04-29T10:33:50.192Z,12.70
2019-04-29T10:36:54.448Z,14.58
2019-04-29T10:40:19.841Z,11.93
2019-04-29T10:43:35.787Z,10.60
2019-04-29T10:46:51.134Z,10.65
2019-04-29T10:50:10.559Z,10.10
2019-04-29T10:53:03.072Z,10.70
2019-04-29T10:55:45.147Z,11.97
2019-04-29T10:58:35.966Z,41.25
2019-04-29T11:02:31.985Z,89.85
2019-04-29T11:05:59.808Z,58.45
2019-04-29T11:08:59.772Z,44.53
2019-04-29T11:12:08.889Z,33.48
2019-04-29T11:15:02.456Z,28.77
2019-04-29T11:18:12.189Z,28.02
2019-04-29T11:21:20.733Z,25.62
2019-04-29T11:24:42.193Z,23.15
2019-04-29T11:27:59.460Z,29.65
2019-04-29T11:30:49.373Z,39.33
2019-04-29T11:33:58.479Z,41.53
2019-04-29T11:36:58.589Z,37.35
2019-04-29T11:40:06.120Z,36.68
2019-04-29T11:43:17.336Z,34.73
2019-04-29T11:46:14.457Z,33.23
2019-04-29T11:48:50.577Z,30.95
2019-04-29T11:51:54.205Z,36.80
2019-04-29T11:54:17.572Z,35.03
2019-04-29T11:56:44.896Z,34.20
2019-04-29T11:59:23.815Z,33.83
2019-04-29T12:02:09.009Z,33.05
2019-04-29T12:04:42.530Z,33.88
2019-04-29T12:07:12.808Z,32.85
2019-04-29T12:09:43.264Z,31.68
2019-04-29T12:12:14.617Z,31.15
2019-04-29T12:15:03.752Z,30.17
2019-04-29T12:17:37.831Z,30.12
2019-04-29T12:20:21.992Z,29.72
2019-04-29T12:22:52.250Z,30.90
2019-04-29T12:25:27.488Z,29.90
2019-04-29T12:28:01.427Z,29.65
2019-04-29T12:30:34.580Z,28.90
2019-04-29T12:33:32.263Z,27.82
2019-04-29T12:36:06.559Z,25.12
2019-04-29T12:38:54.456Z,21.23
2019-04-29T12:42:00.583Z,26.40
2019-04-29T12:44:49.151Z,28.27
2019-04-29T12:47:27.267Z,27.60
2019-04-29T12:49:57.543Z,27.65
2019-04-29T12:52:28.038Z,28.42
2019-04-29T12:55:03.075Z,27.52
2019-04-29T12:57:32.377Z,27.82
2019-04-29T13:00:07.555Z,31.62
2019-04-29T13:03:01.885Z,36.17
2019-04-29T13:05:57.159Z,36.15
2019-04-29T13:08:38.029Z,36.50
2019-04-29T13:11:08.612Z,35.63
2019-04-29T13:13:38.825Z,36.48
2019-04-29T13:16:37.089Z,34.88
2019-04-29T13:19:29.737Z,33.67
2019-04-29T13:21:58.219Z,28.17
2019-04-29T13:24:28.634Z,29.60
2019-04-29T13:26:59.093Z,32.23
2019-04-29T13:29:32.150Z,31.57
2019-04-29T13:32:01.894Z,32.67
2019-04-29T13:34:36.802Z,31.02
2019-04-29T13:37:12.201Z,29.23
2019-04-29T13:39:40.683Z,30.32
2019-04-29T13:42:15.274Z,28.62
2019-04-29T13:45:04.479Z,29.65
2019-04-29T13:47:40.082Z,27.85
2019-04-29T13:50:37.962Z,26.82
2019-04-29T13:52:53.086Z,27.25
2019-04-29T13:55:46.695Z,25.82
2019-04-29T13:57:55.312Z,25.27
2019-04-29T14:00:37.690Z,25.20
2019-04-29T14:03:14.039Z,21.45
2019-04-29T14:05:44.573Z,26.12
2019-04-29T14:08:14.751Z,22.62
2019-04-29T14:10:46.712Z,23.20
2019-04-29T14:13:21.014Z,22.55
2019-04-29T14:15:50.164Z,22.25
2019-04-29T14:18:20.673Z,23.18
2019-04-29T14:20:51.889Z,22.22
2019-04-29T14:23:23.347Z,21.87
2019-04-29T14:25:54.656Z,21.33
2019-04-29T14:28:24.872Z,20.77
2019-04-29T14:30:55.942Z,20.17
2019-04-29T14:33:30.833Z,20.15
2019-04-29T14:36:07.574Z,20.48
2019-04-29T14:38:40.484Z,21.33
2019-04-29T14:41:09.729Z,20.43
2019-04-29T14:44:08.081Z,19.65
2019-04-29T14:46:52.260Z,11.00
2019-04-29T14:49:23.466Z,14.40
2019-04-29T14:51:52.319Z,14.45
2019-04-29T14:54:22.679Z,14.28
2019-04-29T14:56:53.051Z,14.75
2019-04-29T14:59:23.508Z,15.85
2019-04-29T15:02:04.839Z,15.05
2019-04-29T15:04:37.513Z,15.53
2019-04-29T15:07:07.894Z,14.47
2019-04-29T15:09:55.969Z,15.75
2019-04-29T15:12:51.804Z,14.07
2019-04-29T15:15:43.129Z,14.15
2019-04-29T15:18:47.426Z,13.62
2019-04-29T15:21:13.444Z,14.40
2019-04-29T15:23:43.763Z,14.07
2019-04-29T15:26:13.939Z,14.33
2019-04-29T15:28:53.565Z,13.80
2019-04-29T15:31:24.302Z,14.35
2019-04-29T15:33:54.566Z,13.22
2019-04-29T15:36:24.819Z,12.65
2019-04-29T15:39:08.635Z,12.75
2019-04-29T15:41:31.022Z,12.13
2019-04-29T15:44:06.980Z,13.35
2019-04-29T15:46:45.270Z,12.47
2019-04-29T15:49:02.814Z,12.47
2019-04-29T15:51:33.106Z,12.58
2019-04-29T15:54:03.371Z,10.80
2019-04-29T15:56:38.295Z,12.18
2019-04-29T15:59:08.924Z,12.25
2019-04-29T16:01:41.065Z,12.15
2019-04-29T16:04:12.938Z,11.22
2019-04-29T16:07:05.071Z,11.68
2019-04-29T16:09:51.790Z,11.45
2019-04-29T16:12:22.573Z,11.00
2019-04-29T16:14:52.948Z,11.22
2019-04-29T16:17:23.180Z,11.00
2019-04-29T16:19:53.553Z,11.57
2019-04-29T16:22:23.868Z,10.68
2019-04-29T16:24:59.285Z,11.33
2019-04-29T16:27:26.400Z,11.53
2019-04-29T16:29:56.801Z,11.33
2019-04-29T16:32:32.938Z,11.18
2019-04-29T16:35:03.132Z,10.55
2019-04-29T16:37:33.449Z,11.43
2019-04-29T16:40:03.749Z,10.08
2019-04-29T16:42:53.167Z,11.38
2019-04-29T16:45:28.249Z,10.05
2019-04-29T16:47:58.554Z,10.45
2019-04-29T16:50:28.765Z,10.98
2019-04-29T16:52:58.988Z,10.20
2019-04-29T16:55:29.293Z,10.45
2019-04-29T16:58:05.863Z,9.65
2019-04-29T17:00:33.908Z,9.98
2019-04-29T17:03:04.200Z,10.05
2019-04-29T17:05:34.377Z,9.90
2019-04-29T17:08:09.393Z,9.48
2019-04-29T17:11:04.765Z,10.10
2019-04-29T17:13:35.018Z,10.48
2019-04-29T17:16:07.098Z,9.30
2019-04-29T17:18:38.071Z,10.20
2019-04-29T17:21:08.268Z,9.95
2019-04-29T17:23:38.540Z,9.68
2019-04-29T17:26:08.798Z,9.48
2019-04-29T17:29:11.504Z,9.15
2019-04-29T17:31:57.140Z,10.05
2019-04-29T17:34:56.861Z,9.65
2019-04-29T17:37:01.892Z,10.20
2019-04-29T17:39:32.587Z,9.00
2019-04-29T17:42:03.996Z,9.43
2019-04-29T17:44:45.735Z,9.55
2019-04-29T17:47:30.143Z,9.83
2019-04-29T17:50:39.255Z,8.08
2019-04-29T17:53:24.997Z,8.35
2019-04-29T17:56:17.062Z,7.72
2019-04-29T17:58:58.097Z,8.63
2019-04-29T18:01:42.893Z,7.80
2019-04-29T18:04:37.281Z,8.23
2019-04-29T18:07:25.603Z,7.60
2019-04-29T18:10:05.385Z,8.13
2019-04-29T18:12:40.961Z,7.87
2019-04-29T18:15:17.715Z,8.75
2019-04-29T18:17:45.526Z,8.55
2019-04-29T18:20:35.595Z,8.43
2019-04-29T18:23:24.711Z,8.00
2019-04-29T18:26:02.096Z,7.55
2019-04-29T18:28:32.997Z,7.97
2019-04-29T18:31:05.896Z,8.65
2019-04-29T18:33:37.476Z,7.78
2019-04-29T18:36:19.315Z,8.28
2019-04-29T18:38:42.432Z,7.85
2019-04-29T18:41:16.422Z,7.85
2019-04-29T18:43:45.199Z,7.47
2019-04-29T18:46:16.756Z,7.72
2019-04-29T18:48:47.277Z,7.47
2019-04-29T18:51:20.789Z,7.60
2019-04-29T18:53:49.839Z,7.42
2019-04-29T18:56:20.061Z,7.35
2019-04-29T18:58:50.462Z,7.53
2019-04-29T19:01:24.045Z,6.95
2019-04-29T19:04:10.225Z,7.53
2019-04-29T19:06:40.594Z,8.05
2019-04-29T19:09:17.775Z,7.25
2019-04-29T19:11:43.510Z,7.55
2019-04-29T19:14:15.108Z,7.08
2019-04-29T19:16:47.015Z,7.00
2019-04-29T19:19:18.881Z,7.08
2019-04-29T19:21:49.434Z,6.62
2019-04-29T19:24:19.926Z,6.90
2019-04-29T19:26:55.725Z,6.40
2019-04-29T19:29:24.356Z,7.65
2019-04-29T19:31:55.014Z,11.65
2019-04-29T19:34:25.597Z,13.58
2019-04-29T19:36:59.375Z,9.63
2019-04-29T19:39:28.709Z,12.43
2019-04-29T19:41:59.255Z,13.62
2019-04-29T19:44:33.291Z,11.03
2019-04-29T19:47:01.652Z,15.83
2019-04-29T19:49:32.783Z,12.80
2019-04-29T19:52:05.893Z,21.33
2019-04-29T19:54:36.344Z,22.73
2019-04-29T19:57:07.742Z,63.68
2019-04-29T19:59:38.735Z,72.55
2019-04-29T20:02:10.291Z,57.13
2019-04-29T20:04:52.323Z,44.18
2019-04-29T20:07:23.404Z,37.45
2019-04-29T20:10:05.449Z,35.50
2019-04-29T20:12:27.666Z,34.70
2019-04-29T20:15:01.649Z,35.63
2019-04-29T20:17:49.533Z,34.18
2019-04-29T20:20:29.762Z,35.05
2019-04-29T20:23:00.976Z,32.75
2019-04-29T20:25:38.258Z,32.30
2019-04-29T20:28:12.738Z,36.95
2019-04-29T20:30:39.781Z,47.10
2019-04-29T20:33:13.154Z,52.05
2019-04-29T20:35:45.448Z,77.37
2019-04-29T20:38:16.555Z,80.65
2019-04-29T20:40:48.360Z,71.35
2019-04-29T20:43:20.754Z,56.75
2019-04-29T20:45:51.929Z,53.33
2019-04-29T20:48:22.731Z,52.17
2019-04-29T20:50:54.625Z,51.95
2019-04-29T20:53:55.885Z,49.23
2019-04-29T20:56:29.819Z,48.45
2019-04-29T20:59:01.827Z,48.80
2019-04-29T21:01:42.946Z,47.93
2019-04-29T21:04:08.264Z,48.15
2019-04-29T21:06:57.482Z,45.78
2019-04-29T21:09:14.747Z,45.25
2019-04-29T21:12:08.267Z,46.48
2019-04-29T21:14:46.426Z,44.98
2019-04-29T21:17:28.616Z,44.50
2019-04-29T21:19:49.538Z,43.95
2019-04-29T21:22:23.412Z,47.55
2019-04-29T21:24:53.866Z,58.38
2019-04-29T21:27:25.999Z,73.40
2019-04-29T21:29:56.632Z,82.12
2019-04-29T21:32:30.490Z,81.85
2019-04-29T21:35:14.572Z,88.45
2019-04-29T21:37:51.530Z,84.17
2019-04-29T21:40:35.058Z,89.28
2019-04-29T21:43:17.583Z,87.55
2019-04-29T21:45:48.471Z,86.42
2019-04-29T21:48:18.985Z,87.33
2019-04-29T21:50:49.449Z,87.97
2019-04-29T21:53:20.939Z,87.80
2019-04-29T21:55:51.363Z,88.20
2019-04-29T21:58:21.652Z,83.58
2019-04-29T22:00:55.922Z,88.27
2019-04-29T22:03:27.805Z,89.87
2019-04-29T22:06:00.192Z,98.87
2019-04-29T22:08:30.187Z,107.00
2019-04-29T22:11:04.939Z,109.63
2019-04-29T22:13:35.520Z,109.35
2019-04-29T22:16:05.748Z,103.12
2019-04-29T22:18:36.101Z,99.03
2019-04-29T22:21:09.755Z,96.37
2019-04-29T22:23:38.626Z,96.80
2019-04-29T22:26:09.077Z,87.05
2019-04-29T22:28:39.655Z,88.33
2019-04-29T22:31:10.037Z,82.27
2019-04-29T22:33:40.553Z,83.65
2019-04-29T22:36:14.779Z,80.97
2019-04-29T22:38:43.710Z,80.05
2019-04-29T22:41:20.583Z,80.12
2019-04-29T22:43:56.643Z,79.35
2019-04-29T22:46:27.055Z,80.83
2019-04-29T22:48:57.481Z,80.55
2019-04-29T22:51:27.832Z,80.72
2019-04-29T22:53:58.307Z,77.15
2019-04-29T22:56:28.617Z,80.65
2019-04-29T22:58:59.046Z,76.72
2019-04-29T23:01:29.264Z,78.83
2019-04-29T23:03:59.633Z,76.25
2019-04-29T23:06:29.927Z,75.87
2019-04-29T23:09:00.347Z,76.05
2019-04-29T23:11:34.848Z,75.17
2019-04-29T23:14:06.665Z,74.80
2019-04-29T23:16:37.309Z,75.55
2019-04-29T23:19:09.814Z,76.72
2019-04-29T23:22:10.385Z,74.58
2019-04-29T23:24:59.426Z,75.40
2019-04-29T23:27:29.802Z,73.55
2019-04-29T23:30:00.134Z,72.30
2019-04-29T23:32:30.501Z,71.97
2019-04-29T23:35:01.782Z,69.65
2019-04-29T23:37:32.934Z,71.80
2019-04-29T23:40:03.244Z,69.30
2019-04-29T23:42:33.729Z,71.72
2019-04-29T23:45:05.266Z,70.37
2019-04-29T23:47:36.776Z,67.75
2019-04-29T23:50:07.035Z,69.10
2019-04-29T23:52:37.431Z,68.85
2019-04-29T23:55:07.955Z,68.65
2019-04-29T23:58:02.893Z,68.45
